createdAt,value
2022-10-10T00:01:32.368Z,33.30
2022-10-10T00:04:02.132Z,31.57
2022-10-10T00:06:33.380Z,26.97
2022-10-10T00:09:02.661Z,30.60
2022-10-10T00:11:33.124Z,34.50
2022-10-10T00:14:01.983Z,27.17
2022-10-10T00:16:30.515Z,29.70
2022-10-10T00:18:58.955Z,32.53
2022-10-10T00:21:27.549Z,32.57
2022-10-10T00:23:56.075Z,30.40
2022-10-10T00:26:24.659Z,31.83
2022-10-10T00:28:54.605Z,33.10
2022-10-10T00:31:23.432Z,30.37
2022-10-10T00:33:52.183Z,30.00
2022-10-10T00:36:21.412Z,33.57
2022-10-10T00:38:49.926Z,30.47
2022-10-10T00:41:18.549Z,32.33
2022-10-10T00:46:42.839Z,29.73
2022-10-10T00:49:16.405Z,30.70
2022-10-10T00:51:47.120Z,32.93
2022-10-10T00:54:19.011Z,31.13
2022-10-10T00:56:50.833Z,30.77
2022-10-10T00:59:20.957Z,28.57
2022-10-10T01:01:50.960Z,28.03
2022-10-10T01:04:31.977Z,30.10
2022-10-10T01:07:02.531Z,29.70
2022-10-10T01:09:32.103Z,27.07
2022-10-10T01:12:12.273Z,30.50
2022-10-10T01:14:47.858Z,29.27
2022-10-10T01:17:24.037Z,30.13
2022-10-10T01:20:19.137Z,25.90
2022-10-10T01:23:03.677Z,25.10
2022-10-10T01:25:40.912Z,30.33
2022-10-10T01:28:13.873Z,33.27
2022-10-10T01:30:44.112Z,33.03
2022-10-10T01:33:16.943Z,28.07
2022-10-10T01:35:52.976Z,32.50
2022-10-10T01:38:30.276Z,31.47
2022-10-10T01:41:07.283Z,37.03
2022-10-10T01:43:37.265Z,33.63
2022-10-10T01:46:12.343Z,33.17
2022-10-10T01:48:41.963Z,31.23
2022-10-10T01:51:25.535Z,31.93
2022-10-10T01:54:02.251Z,32.40
2022-10-10T01:56:40.312Z,34.20
2022-10-10T01:59:25.794Z,35.90
2022-10-10T02:01:58.240Z,34.20
2022-10-10T02:04:33.478Z,34.37
2022-10-10T02:07:07.884Z,33.50
2022-10-10T02:09:39.902Z,34.03
2022-10-10T02:12:10.606Z,34.97
2022-10-10T02:14:42.293Z,30.93
2022-10-10T02:17:14.557Z,36.23
2022-10-10T02:19:50.859Z,36.93
2022-10-10T02:22:21.193Z,39.83
2022-10-10T02:24:50.193Z,37.37
2022-10-10T02:27:22.710Z,32.27
2022-10-10T02:29:54.368Z,34.63
2022-10-10T02:32:32.771Z,31.43
2022-10-10T02:35:07.935Z,27.80
2022-10-10T02:37:38.803Z,29.00
2022-10-10T02:40:10.064Z,32.87
2022-10-10T02:42:39.940Z,29.00
2022-10-10T02:45:09.075Z,32.03
2022-10-10T02:47:39.243Z,29.53
2022-10-10T02:50:08.790Z,29.53
2022-10-10T02:52:37.534Z,30.07
2022-10-10T02:55:06.963Z,30.43
2022-10-10T02:57:35.465Z,30.23
2022-10-10T03:00:05.257Z,28.37
2022-10-10T03:02:34.446Z,28.87
2022-10-10T03:05:05.890Z,28.60
2022-10-10T03:07:34.980Z,30.00
2022-10-10T03:10:03.469Z,30.17
2022-10-10T03:12:32.189Z,29.47
2022-10-10T03:15:00.861Z,30.33
2022-10-10T03:17:29.334Z,35.97
2022-10-10T03:19:57.835Z,29.20
2022-10-10T03:22:27.644Z,26.20
2022-10-10T03:24:56.120Z,24.57
2022-10-10T03:27:24.877Z,25.87
2022-10-10T03:29:53.433Z,30.60
2022-10-10T03:32:22.105Z,32.27
2022-10-10T03:34:50.560Z,25.87
2022-10-10T03:37:19.058Z,28.43
2022-10-10T03:39:49.108Z,27.40
2022-10-10T03:42:17.619Z,29.30
2022-10-10T03:44:46.480Z,28.50
2022-10-10T03:47:14.973Z,31.83
2022-10-10T03:49:43.695Z,30.77
2022-10-10T03:52:12.142Z,26.93
2022-10-10T03:54:40.850Z,27.93
2022-10-10T03:57:10.665Z,26.47
2022-10-10T03:59:39.123Z,27.00
2022-10-10T04:02:07.619Z,32.10
2022-10-10T04:04:36.337Z,29.63
2022-10-10T04:07:05.072Z,30.87
2022-10-10T04:09:33.555Z,32.87
2022-10-10T04:12:02.059Z,27.53
2022-10-10T04:14:31.901Z,30.53
2022-10-10T04:17:03.068Z,31.17
2022-10-10T04:19:32.062Z,29.00
2022-10-10T04:22:00.552Z,31.90
2022-10-10T04:24:29.085Z,31.17
2022-10-10T04:26:57.894Z,32.73
2022-10-10T04:29:26.580Z,32.27
2022-10-10T04:31:56.939Z,29.57
2022-10-10T04:34:25.527Z,30.47
2022-10-10T04:36:53.999Z,28.03
2022-10-10T04:39:23.429Z,30.23
2022-10-10T04:41:51.912Z,27.07
2022-10-10T04:44:20.732Z,29.00
2022-10-10T04:46:49.240Z,30.27
2022-10-10T04:49:19.275Z,26.70
2022-10-10T04:51:48.202Z,31.23
2022-10-10T04:54:16.663Z,29.23
2022-10-10T04:56:46.053Z,26.40
2022-10-10T04:59:14.498Z,25.10
2022-10-10T05:01:43.157Z,29.03
2022-10-10T05:04:12.831Z,29.33
2022-10-10T05:06:42.953Z,31.97
2022-10-10T05:09:11.727Z,32.70
2022-10-10T05:11:40.164Z,31.93
2022-10-10T05:14:08.637Z,30.07
2022-10-10T05:16:37.244Z,26.00
2022-10-10T05:19:05.733Z,30.30
2022-10-10T05:21:34.230Z,31.70
2022-10-10T05:24:04.452Z,27.10
2022-10-10T05:26:33.013Z,29.87
2022-10-10T05:29:01.676Z,30.07
2022-10-10T05:31:30.209Z,26.57
2022-10-10T05:33:58.710Z,29.33
2022-10-10T05:36:27.232Z,29.47
2022-10-10T05:38:55.761Z,31.27
2022-10-10T05:41:25.599Z,28.50
2022-10-10T05:43:54.062Z,28.90
2022-10-10T05:46:24.624Z,25.77
2022-10-10T05:48:53.288Z,27.63
2022-10-10T05:51:22.595Z,25.77
2022-10-10T05:53:51.334Z,32.03
2022-10-10T05:56:19.887Z,24.47
2022-10-10T05:58:51.324Z,24.07
2022-10-10T06:01:19.892Z,23.53
2022-10-10T06:03:52.726Z,24.27
2022-10-10T06:06:21.208Z,21.87
2022-10-10T06:08:49.854Z,19.23
2022-10-10T06:11:19.331Z,19.27
2022-10-10T06:13:54.019Z,20.10
2022-10-10T06:16:23.066Z,21.57
2022-10-10T06:18:52.134Z,21.53
2022-10-10T06:21:21.296Z,19.33
2022-10-10T06:23:50.012Z,20.80
2022-10-10T06:26:18.930Z,21.20
2022-10-10T06:28:50.770Z,20.23
2022-10-10T06:31:19.332Z,16.97
2022-10-10T06:33:49.185Z,16.40
2022-10-10T06:36:18.071Z,16.73
2022-10-10T06:38:47.322Z,18.23
2022-10-10T06:41:15.830Z,15.80
2022-10-10T06:43:44.330Z,16.30
2022-10-10T06:46:14.357Z,16.20
2022-10-10T06:48:42.888Z,16.53
2022-10-10T06:51:15.292Z,16.27
2022-10-10T06:53:44.307Z,13.23
2022-10-10T06:56:17.852Z,17.27
2022-10-10T06:58:46.502Z,17.23
2022-10-10T07:01:19.536Z,14.57
2022-10-10T07:03:48.111Z,15.70
2022-10-10T07:06:18.035Z,16.97
2022-10-10T07:08:46.584Z,15.97
2022-10-10T07:11:15.340Z,13.60
2022-10-10T07:13:44.106Z,13.20
2022-10-10T07:16:13.109Z,10.77
2022-10-10T07:18:42.990Z,13.87
2022-10-10T07:21:12.067Z,14.40
2022-10-10T07:23:40.764Z,12.67
2022-10-10T07:26:13.424Z,11.37
2022-10-10T07:28:42.023Z,10.67
2022-10-10T07:31:12.172Z,15.43
2022-10-10T07:33:49.638Z,12.40
2022-10-10T07:36:19.143Z,11.37
2022-10-10T07:38:52.095Z,11.87
2022-10-10T07:41:21.338Z,11.60
2022-10-10T07:43:54.920Z,12.83
2022-10-10T07:46:23.545Z,12.90
2022-10-10T07:48:53.364Z,15.23
2022-10-10T07:51:21.791Z,11.93
2022-10-10T07:53:50.286Z,12.93
2022-10-10T07:56:18.728Z,12.50
2022-10-10T07:58:47.237Z,12.90
2022-10-10T08:01:15.828Z,15.83
2022-10-10T08:03:44.774Z,13.63
2022-10-10T08:06:17.323Z,13.80
2022-10-10T08:08:52.029Z,11.60
2022-10-10T08:11:21.759Z,15.17
2022-10-10T08:13:51.559Z,13.03
2022-10-10T08:16:20.450Z,12.23
2022-10-10T08:18:48.980Z,13.50
2022-10-10T08:21:19.267Z,13.13
2022-10-10T08:23:47.989Z,11.70
2022-10-10T08:26:19.903Z,13.40
2022-10-10T08:28:48.839Z,10.70
2022-10-10T08:31:20.470Z,12.37
2022-10-10T08:33:50.378Z,11.63
2022-10-10T08:36:22.789Z,12.80
2022-10-10T08:38:52.701Z,13.80
2022-10-10T08:41:28.111Z,12.33
2022-10-10T08:44:00.953Z,12.13
2022-10-10T08:46:36.854Z,13.57
2022-10-10T08:49:16.042Z,11.07
2022-10-10T08:51:52.578Z,15.10
2022-10-10T08:54:23.283Z,11.93
2022-10-10T08:56:51.995Z,11.17
2022-10-10T08:59:25.399Z,12.63
2022-10-10T09:02:17.616Z,11.27
2022-10-10T09:04:48.442Z,11.50
2022-10-10T09:07:28.418Z,13.90
2022-10-10T09:10:09.618Z,11.90
2022-10-10T09:12:47.472Z,15.00
2022-10-10T09:15:22.019Z,10.50
2022-10-10T09:18:00.159Z,14.93
2022-10-10T09:20:42.200Z,12.47
2022-10-10T09:23:22.536Z,11.30
2022-10-10T09:25:57.238Z,9.43
2022-10-10T09:28:37.339Z,8.77
2022-10-10T09:31:12.427Z,9.63
2022-10-10T09:33:45.353Z,12.10
2022-10-10T09:36:17.075Z,9.10
2022-10-10T09:38:51.422Z,11.00
2022-10-10T09:41:24.061Z,14.13
2022-10-10T09:43:58.088Z,12.23
2022-10-10T09:46:27.521Z,8.40
2022-10-10T09:48:56.411Z,8.30
2022-10-10T09:51:24.991Z,9.53
2022-10-10T09:53:54.789Z,10.77
2022-10-10T09:56:26.563Z,10.07
2022-10-10T09:58:56.486Z,10.43
2022-10-10T10:01:26.950Z,7.13
2022-10-10T10:04:30.138Z,7.33
2022-10-10T10:07:07.319Z,8.43
2022-10-10T10:09:37.256Z,8.30
2022-10-10T10:12:07.383Z,9.17
2022-10-10T10:14:39.042Z,6.40
2022-10-10T10:17:09.820Z,7.47
2022-10-10T10:19:39.919Z,8.10
2022-10-10T10:22:26.797Z,8.67
2022-10-10T10:24:56.938Z,6.30
2022-10-10T10:27:27.694Z,9.17
2022-10-10T10:29:57.628Z,7.37
2022-10-10T10:32:46.201Z,9.13
2022-10-10T10:35:25.482Z,9.07
2022-10-10T10:38:10.804Z,8.60
2022-10-10T10:40:46.383Z,6.40
2022-10-10T10:43:49.359Z,7.77
2022-10-10T10:46:32.198Z,6.37
2022-10-10T10:49:03.143Z,10.37
2022-10-10T10:51:47.890Z,15.87
2022-10-10T10:54:37.046Z,8.80
2022-10-10T10:57:43.836Z,6.97
2022-10-10T11:00:26.173Z,21.20
2022-10-10T11:03:38.559Z,7.90
2022-10-10T11:06:11.873Z,10.30
2022-10-10T11:09:00.218Z,7.63
2022-10-10T11:11:43.246Z,11.73
2022-10-10T11:14:27.141Z,6.60
2022-10-10T11:17:00.278Z,15.05
2022-10-10T11:19:33.588Z,7.73
2022-10-10T11:22:06.309Z,6.70
2022-10-10T11:24:46.180Z,8.57
2022-10-10T11:27:20.506Z,5.95
2022-10-10T11:30:00.007Z,9.57
2022-10-10T11:32:34.285Z,6.97
2022-10-10T11:35:18.449Z,5.57
2022-10-10T11:37:51.678Z,5.82
2022-10-10T11:40:36.163Z,4.88
2022-10-10T11:43:10.070Z,6.68
2022-10-10T11:45:49.749Z,15.30
2022-10-10T11:48:28.578Z,7.57
2022-10-10T11:51:02.704Z,6.75
2022-10-10T11:53:37.549Z,7.77
2022-10-10T11:56:15.512Z,7.00
2022-10-10T11:58:48.909Z,5.85
2022-10-10T12:01:24.498Z,5.63
2022-10-10T12:03:53.472Z,10.93
2022-10-10T12:06:26.700Z,9.17
2022-10-10T12:09:01.028Z,15.93
2022-10-10T12:11:34.321Z,6.97
2022-10-10T12:14:04.893Z,7.30
2022-10-10T12:16:37.973Z,6.13
2022-10-10T12:19:08.965Z,7.20
2022-10-10T12:21:56.078Z,7.50
2022-10-10T12:24:26.289Z,7.97
2022-10-10T12:27:29.794Z,6.93
2022-10-10T12:30:19.575Z,7.03
2022-10-10T12:32:52.919Z,11.73
2022-10-10T12:35:36.794Z,11.73
2022-10-10T12:38:20.499Z,9.80
2022-10-10T12:41:13.063Z,6.88
2022-10-10T12:43:49.369Z,7.60
2022-10-10T12:46:35.810Z,7.90
2022-10-10T12:49:17.034Z,10.23
2022-10-10T12:51:47.160Z,8.57
2022-10-10T12:54:25.727Z,7.93
2022-10-10T12:57:06.953Z,9.97
2022-10-10T12:59:37.573Z,7.55
2022-10-10T13:02:13.548Z,7.88
2022-10-10T13:04:45.958Z,8.10
2022-10-10T13:07:17.517Z,5.40
2022-10-10T13:09:48.783Z,10.43
2022-10-10T13:12:26.073Z,5.63
2022-10-10T13:14:54.753Z,6.30
2022-10-10T13:17:26.350Z,8.05
2022-10-10T13:19:58.620Z,17.27
2022-10-10T13:22:28.849Z,9.20
2022-10-10T13:24:58.072Z,7.68
2022-10-10T13:27:28.177Z,9.23
2022-10-10T13:29:56.992Z,13.20
2022-10-10T13:32:27.863Z,6.73
2022-10-10T13:35:00.508Z,10.93
2022-10-10T13:37:30.274Z,14.75
2022-10-10T13:39:59.203Z,5.47
2022-10-10T13:42:34.725Z,10.97
2022-10-10T13:45:30.372Z,6.80
2022-10-10T13:48:13.972Z,6.53
2022-10-10T13:51:08.543Z,6.75
2022-10-10T13:53:49.951Z,7.28
2022-10-10T13:56:23.586Z,8.02
2022-10-10T13:58:55.118Z,5.88
2022-10-10T14:01:34.496Z,9.57
2022-10-10T14:04:16.807Z,16.40
2022-10-10T14:06:57.368Z,5.93
2022-10-10T14:09:31.375Z,6.45
2022-10-10T14:12:02.574Z,7.65
2022-10-10T14:14:36.502Z,7.40
2022-10-10T14:17:06.897Z,10.40
2022-10-10T14:19:36.251Z,6.60
2022-10-10T14:22:06.283Z,9.60
2022-10-10T14:24:35.157Z,9.13
2022-10-10T14:27:16.042Z,13.05
2022-10-10T14:29:44.621Z,9.02
2022-10-10T14:32:14.378Z,8.25
2022-10-10T14:34:43.222Z,13.52
2022-10-10T14:37:19.552Z,11.25
2022-10-10T14:39:48.820Z,14.10
2022-10-10T14:42:19.256Z,8.60
2022-10-10T14:44:47.733Z,8.88
2022-10-10T14:47:18.088Z,11.27
2022-10-10T14:49:47.142Z,10.68
2022-10-10T14:52:17.240Z,7.20
2022-10-10T14:54:45.780Z,8.48
2022-10-10T14:57:15.187Z,9.25
2022-10-10T14:59:46.079Z,9.57
2022-10-10T15:02:23.119Z,10.32
2022-10-10T15:04:52.209Z,15.43
2022-10-10T15:07:22.036Z,8.35
2022-10-10T15:10:26.067Z,11.05
2022-10-10T15:12:41.936Z,11.50
2022-10-10T15:15:12.780Z,10.55
2022-10-10T15:17:41.510Z,12.63
2022-10-10T15:20:12.463Z,10.40
2022-10-10T15:22:42.929Z,10.30
2022-10-10T15:25:11.799Z,9.95
2022-10-10T15:27:40.583Z,9.63
2022-10-10T15:30:10.185Z,8.05
2022-10-10T15:32:40.658Z,8.32
2022-10-10T15:35:12.849Z,8.50
2022-10-10T15:37:43.347Z,11.00
2022-10-10T15:40:14.067Z,11.93
2022-10-10T15:42:42.528Z,10.87
2022-10-10T15:45:12.237Z,12.15
2022-10-10T15:47:46.474Z,13.98
2022-10-10T15:50:15.773Z,11.55
2022-10-10T15:52:47.460Z,10.07
2022-10-10T15:55:15.988Z,11.25
2022-10-10T15:57:44.542Z,14.10
2022-10-10T16:00:14.607Z,9.57
2022-10-10T16:02:43.299Z,12.53
2022-10-10T16:05:11.954Z,19.77
2022-10-10T16:07:46.972Z,20.10
2022-10-10T16:10:18.161Z,39.00
2022-10-10T16:12:46.649Z,40.77
2022-10-10T16:15:15.222Z,47.63
2022-10-10T16:17:43.741Z,53.33
2022-10-10T16:20:13.005Z,50.90
2022-10-10T16:22:41.510Z,46.60
2022-10-10T16:25:21.854Z,29.73
2022-10-10T16:27:53.021Z,19.20
2022-10-10T16:30:22.001Z,17.03
2022-10-10T16:32:51.148Z,26.53
2022-10-10T16:35:19.846Z,32.37
2022-10-10T16:37:48.650Z,31.37
2022-10-10T16:40:17.468Z,47.70
2022-10-10T16:42:45.920Z,27.83
2022-10-10T16:45:15.888Z,17.07
2022-10-10T16:47:44.422Z,10.27
2022-10-10T16:50:13.329Z,11.33
2022-10-10T16:52:41.907Z,15.10
2022-10-10T16:55:11.351Z,12.90
2022-10-10T16:57:40.953Z,13.07
2022-10-10T17:00:11.060Z,20.40
2022-10-10T17:02:42.331Z,18.30
2022-10-10T17:05:11.305Z,13.00
2022-10-10T17:07:39.935Z,14.03
2022-10-10T17:10:09.438Z,16.03
2022-10-10T17:12:37.975Z,17.57
2022-10-10T17:15:07.756Z,26.20
2022-10-10T17:17:37.827Z,25.53
2022-10-10T17:20:09.268Z,17.57
2022-10-10T17:22:37.930Z,14.60
2022-10-10T17:25:07.430Z,17.23
2022-10-10T17:27:36.097Z,20.70
2022-10-10T17:30:06.125Z,15.17
2022-10-10T17:32:34.690Z,17.50
2022-10-10T17:35:03.215Z,16.07
2022-10-10T17:37:33.115Z,14.03
2022-10-10T17:40:02.187Z,17.50
2022-10-10T17:42:31.045Z,17.67
2022-10-10T17:45:00.224Z,18.87
2022-10-10T17:47:29.368Z,18.63
2022-10-10T17:49:58.103Z,21.17
2022-10-10T17:52:27.151Z,23.20
2022-10-10T17:54:57.244Z,26.83
2022-10-10T17:57:25.999Z,24.20
2022-10-10T17:59:54.704Z,25.50
2022-10-10T18:02:23.367Z,24.80
2022-10-10T18:04:52.103Z,29.23
2022-10-10T18:07:20.766Z,27.50
2022-10-10T18:09:52.132Z,26.40
2022-10-10T18:12:22.083Z,22.37
2022-10-10T18:14:50.821Z,20.17
2022-10-10T18:17:19.573Z,22.20
2022-10-10T18:19:48.448Z,20.00
2022-10-10T18:22:16.994Z,21.20
2022-10-10T18:24:45.456Z,18.07
2022-10-10T18:27:14.084Z,20.40
2022-10-10T18:29:43.879Z,23.83
2022-10-10T18:32:12.435Z,21.93
2022-10-10T18:34:41.016Z,24.40
2022-10-10T18:37:10.195Z,29.23
2022-10-10T18:39:40.286Z,22.53
2022-10-10T18:42:09.120Z,24.53
2022-10-10T18:44:37.644Z,20.93
2022-10-10T18:47:07.693Z,24.70
2022-10-10T18:49:36.340Z,21.53
2022-10-10T18:52:05.137Z,20.63
2022-10-10T18:54:35.541Z,27.50
2022-10-10T18:57:04.299Z,21.10
2022-10-10T18:59:33.355Z,20.13
2022-10-10T19:02:02.053Z,24.03
2022-10-10T19:04:32.047Z,19.37
2022-10-10T19:07:02.137Z,21.63
2022-10-10T19:09:30.893Z,22.53
2022-10-10T19:11:59.593Z,23.67
2022-10-10T19:14:28.329Z,24.07
2022-10-10T19:16:56.880Z,22.40
2022-10-10T19:19:25.390Z,19.90
2022-10-10T19:21:55.606Z,23.30
2022-10-10T19:24:24.263Z,24.20
2022-10-10T19:26:56.655Z,27.13
2022-10-10T19:29:26.287Z,25.90
2022-10-10T19:31:54.969Z,26.97
2022-10-10T19:34:23.984Z,23.57
2022-10-10T19:36:53.512Z,24.63
2022-10-10T19:39:23.372Z,26.20
2022-10-10T19:41:51.899Z,28.33
2022-10-10T19:44:20.667Z,26.53
2022-10-10T19:46:49.355Z,26.17
2022-10-10T19:49:17.895Z,24.37
2022-10-10T19:51:46.336Z,26.83
2022-10-10T19:54:14.878Z,24.50
2022-10-10T19:56:44.854Z,26.67
2022-10-10T19:59:13.477Z,24.23
2022-10-10T20:01:41.974Z,23.73
2022-10-10T20:04:10.678Z,25.17
2022-10-10T20:06:41.290Z,24.57
2022-10-10T20:09:10.983Z,25.67
2022-10-10T20:11:40.096Z,26.83
2022-10-10T20:14:10.778Z,26.53
2022-10-10T20:16:39.645Z,30.27
2022-10-10T20:19:08.594Z,24.97
2022-10-10T20:21:37.289Z,22.97
2022-10-10T20:24:09.977Z,24.17
2022-10-10T20:26:38.517Z,27.50
2022-10-10T20:29:09.295Z,22.03
2022-10-10T20:31:38.504Z,24.83
2022-10-10T20:34:07.971Z,25.93
2022-10-10T20:36:37.242Z,23.80
2022-10-10T20:39:08.991Z,26.30
2022-10-10T20:41:39.678Z,25.37
2022-10-10T20:44:12.260Z,21.87
2022-10-10T20:46:42.710Z,24.93
2022-10-10T20:49:15.702Z,25.83
2022-10-10T20:51:48.591Z,23.70
2022-10-10T20:54:18.983Z,26.33
2022-10-10T20:56:49.176Z,26.13
2022-10-10T20:59:20.417Z,23.57
2022-10-10T21:01:49.050Z,23.00
2022-10-10T21:04:17.694Z,24.43
2022-10-10T21:06:46.382Z,21.63
2022-10-10T21:09:16.635Z,24.90
2022-10-10T21:11:48.723Z,26.57
2022-10-10T21:14:21.047Z,22.17
2022-10-10T21:16:50.576Z,23.77
2022-10-10T21:19:19.251Z,22.20
2022-10-10T21:21:48.299Z,24.53
2022-10-10T21:24:17.072Z,26.80
2022-10-10T21:26:49.043Z,28.43
2022-10-10T21:29:18.020Z,20.00
2022-10-10T21:31:48.090Z,21.10
2022-10-10T21:34:19.001Z,26.73
2022-10-10T21:36:48.244Z,22.23
2022-10-10T21:39:16.814Z,22.03
2022-10-10T21:41:45.323Z,25.10
2022-10-10T21:44:15.842Z,24.47
2022-10-10T21:46:44.674Z,26.43
2022-10-10T21:49:14.805Z,29.33
2022-10-10T21:51:46.582Z,28.87
2022-10-10T21:54:15.878Z,23.77
2022-10-10T21:56:44.422Z,25.87
2022-10-10T21:59:13.289Z,28.90
2022-10-10T22:01:42.656Z,25.10
2022-10-10T22:04:11.589Z,21.97
2022-10-10T22:06:41.596Z,21.43
2022-10-10T22:09:10.186Z,23.67
2022-10-10T22:11:38.674Z,28.40
2022-10-10T22:14:07.282Z,25.53
2022-10-10T22:16:36.620Z,23.77
2022-10-10T22:19:05.526Z,24.27
2022-10-10T22:21:35.154Z,24.93
2022-10-10T22:24:07.909Z,22.53
2022-10-10T22:26:37.177Z,22.70
2022-10-10T22:29:05.765Z,25.90
2022-10-10T22:31:37.492Z,33.03
2022-10-10T22:34:06.744Z,27.50
2022-10-10T22:36:36.106Z,26.53
2022-10-10T22:39:07.267Z,28.57
2022-10-10T22:41:36.011Z,28.10
2022-10-10T22:44:05.168Z,36.50
2022-10-10T22:46:34.339Z,32.60
2022-10-10T22:49:02.860Z,35.50
2022-10-10T22:51:31.570Z,36.87
2022-10-10T22:54:00.156Z,43.57
2022-10-10T22:56:30.048Z,39.77
2022-10-10T22:58:58.576Z,40.47
2022-10-10T23:01:27.608Z,37.97
2022-10-10T23:03:58.334Z,37.93
2022-10-10T23:06:28.626Z,32.83
2022-10-10T23:08:58.186Z,26.37
2022-10-10T23:11:26.682Z,29.37
2022-10-10T23:13:56.771Z,25.97
2022-10-10T23:16:25.394Z,31.83
2022-10-10T23:18:53.886Z,34.13
2022-10-10T23:21:22.513Z,28.13
2022-10-10T23:23:51.143Z,36.00
2022-10-10T23:26:19.767Z,24.93
2022-10-10T23:28:50.674Z,40.57
2022-10-10T23:31:20.834Z,25.90
2022-10-10T23:33:49.397Z,28.10
2022-10-10T23:36:18.107Z,23.10
2022-10-10T23:38:46.660Z,28.47
2022-10-10T23:41:15.442Z,22.07
2022-10-10T23:43:44.180Z,23.20
2022-10-10T23:46:13.064Z,23.37
2022-10-10T23:48:43.587Z,26.43
2022-10-10T23:51:12.999Z,20.67
2022-10-10T23:53:41.894Z,19.13
2022-10-10T23:56:10.714Z,23.37
2022-10-10T23:58:39.252Z,21.50
